createdAt,value
2017-11-29T00:01:14.009Z,25.83
2017-11-29T00:03:40.797Z,20.75
2017-11-29T00:06:07.540Z,23.77
2017-11-29T00:08:36.123Z,21.12
2017-11-29T00:11:05.540Z,19.30
2017-11-29T00:13:35.181Z,29.55
2017-11-29T00:16:03.902Z,25.37
2017-11-29T00:18:32.596Z,25.52
2017-11-29T00:21:01.232Z,20.85
2017-11-29T00:23:29.920Z,25.48
2017-11-29T00:25:58.610Z,22.87
2017-11-29T00:28:27.290Z,25.95
2017-11-29T00:30:55.995Z,21.98
2017-11-29T00:33:24.656Z,24.95
2017-11-29T00:35:53.301Z,26.42
2017-11-29T00:38:22.015Z,30.62
2017-11-29T00:40:50.858Z,30.92
2017-11-29T00:43:19.497Z,30.55
2017-11-29T00:45:48.192Z,24.50
2017-11-29T00:48:16.851Z,24.02
2017-11-29T00:50:45.477Z,23.77
2017-11-29T00:53:14.170Z,20.70
2017-11-29T00:55:42.856Z,27.73
2017-11-29T00:58:11.540Z,23.73
2017-11-29T01:00:38.292Z,23.87
2017-11-29T01:03:05.033Z,24.87
2017-11-29T01:05:31.928Z,23.20
2017-11-29T01:07:58.609Z,31.67
2017-11-29T01:10:25.700Z,29.48
2017-11-29T01:12:52.415Z,27.62
2017-11-29T01:15:19.097Z,35.65
2017-11-29T01:17:45.861Z,27.30
2017-11-29T01:20:12.546Z,27.55
2017-11-29T01:22:39.230Z,24.15
2017-11-29T01:25:05.937Z,34.42
2017-11-29T01:27:33.106Z,23.60
2017-11-29T01:29:59.856Z,25.00
2017-11-29T01:32:26.582Z,21.15
2017-11-29T01:34:53.265Z,23.40
2017-11-29T01:37:20.031Z,27.33
2017-11-29T01:39:47.560Z,23.10
2017-11-29T01:42:14.227Z,37.00
2017-11-29T01:44:40.977Z,32.20
2017-11-29T01:47:08.445Z,36.90
2017-11-29T01:49:35.940Z,30.02
2017-11-29T01:52:02.680Z,37.08
2017-11-29T01:54:29.477Z,30.98
2017-11-29T01:56:56.353Z,36.70
2017-11-29T01:59:23.778Z,33.92
2017-11-29T02:01:50.435Z,27.20
2017-11-29T02:04:17.868Z,28.92
2017-11-29T02:06:44.553Z,32.50
2017-11-29T02:09:11.988Z,26.40
2017-11-29T02:11:38.693Z,27.50
2017-11-29T02:14:05.469Z,30.62
2017-11-29T02:16:32.144Z,30.30
2017-11-29T02:18:59.587Z,29.25
2017-11-29T02:21:26.341Z,30.62
2017-11-29T02:23:53.847Z,27.83
2017-11-29T02:26:21.522Z,25.00
2017-11-29T02:28:48.303Z,27.98
2017-11-29T02:31:15.220Z,21.62
2017-11-29T02:33:41.984Z,32.75
2017-11-29T02:36:08.786Z,29.58
2017-11-29T02:38:36.372Z,34.25
2017-11-29T02:41:21.285Z,33.20
2017-11-29T02:43:48.625Z,34.22
2017-11-29T02:46:15.403Z,33.30
2017-11-29T02:48:45.300Z,30.50
2017-11-29T02:51:12.334Z,32.13
2017-11-29T02:53:39.299Z,27.80
2017-11-29T02:56:06.134Z,31.17
2017-11-29T02:58:32.985Z,28.33
2017-11-29T03:01:00.278Z,27.45
2017-11-29T03:03:27.730Z,31.87
2017-11-29T03:05:55.293Z,22.58
2017-11-29T03:08:22.709Z,19.00
2017-11-29T03:10:49.413Z,21.62
2017-11-29T03:13:16.069Z,18.73
2017-11-29T03:15:43.783Z,21.20
2017-11-29T03:18:10.470Z,24.90
2017-11-29T03:20:38.031Z,20.70
2017-11-29T03:23:04.693Z,21.52
2017-11-29T03:25:31.381Z,23.33
2017-11-29T03:27:58.248Z,20.55
2017-11-29T03:30:25.658Z,22.77
2017-11-29T03:32:52.362Z,18.10
2017-11-29T03:35:19.058Z,17.10
2017-11-29T03:37:45.722Z,22.62
2017-11-29T03:40:12.415Z,19.85
2017-11-29T03:42:39.344Z,18.45
2017-11-29T03:45:05.996Z,17.15
2017-11-29T03:47:32.700Z,16.87
2017-11-29T03:50:00.354Z,18.80
2017-11-29T03:52:27.202Z,18.45
2017-11-29T03:54:54.008Z,14.43
2017-11-29T03:57:20.872Z,16.70
2017-11-29T03:59:47.786Z,24.70
2017-11-29T04:02:15.458Z,24.83
2017-11-29T04:04:42.197Z,31.60
2017-11-29T04:07:09.115Z,27.62
2017-11-29T04:09:36.715Z,27.05
2017-11-29T04:12:03.510Z,26.35
2017-11-29T04:14:31.074Z,25.62
2017-11-29T04:16:57.840Z,28.00
2017-11-29T04:19:25.371Z,23.25
2017-11-29T04:21:52.166Z,27.90
2017-11-29T04:24:18.876Z,20.83
2017-11-29T04:26:45.609Z,28.20
2017-11-29T04:29:12.352Z,25.30
2017-11-29T04:31:39.238Z,23.62
2017-11-29T04:34:07.226Z,20.37
2017-11-29T04:36:33.894Z,22.25
2017-11-29T04:39:00.743Z,21.50
2017-11-29T04:41:27.770Z,20.08
2017-11-29T04:43:54.534Z,32.90
2017-11-29T04:46:21.560Z,27.70
2017-11-29T04:48:48.513Z,29.67
2017-11-29T04:51:15.279Z,22.75
2017-11-29T04:53:42.920Z,21.33
2017-11-29T04:56:11.384Z,51.78
2017-11-29T04:58:38.986Z,24.52
2017-11-29T05:01:05.810Z,27.48
2017-11-29T05:03:32.654Z,21.80
2017-11-29T05:05:59.433Z,22.90
2017-11-29T05:08:26.232Z,16.55
2017-11-29T05:10:53.023Z,22.80
2017-11-29T05:13:19.893Z,20.75
2017-11-29T05:15:46.655Z,20.92
2017-11-29T05:18:14.210Z,17.55
2017-11-29T05:20:41.040Z,18.95
2017-11-29T05:23:08.087Z,18.50
2017-11-29T05:25:34.861Z,21.27
2017-11-29T05:28:01.611Z,18.10
2017-11-29T05:30:29.174Z,13.93
2017-11-29T05:32:56.762Z,16.40
2017-11-29T05:35:23.549Z,15.82
2017-11-29T05:37:50.347Z,17.80
2017-11-29T05:40:17.120Z,16.25
2017-11-29T05:42:43.866Z,19.58
2017-11-29T05:45:11.514Z,17.80
2017-11-29T05:47:38.264Z,14.82
2017-11-29T05:50:05.040Z,16.20
2017-11-29T05:52:31.839Z,16.98
2017-11-29T05:54:58.597Z,19.05
2017-11-29T05:57:25.368Z,18.17
2017-11-29T05:59:52.160Z,22.67
2017-11-29T06:02:19.637Z,16.37
2017-11-29T06:04:46.533Z,15.82
2017-11-29T06:07:14.318Z,14.23
2017-11-29T06:09:41.368Z,18.73
2017-11-29T06:12:08.362Z,16.27
2017-11-29T06:14:35.876Z,21.50
2017-11-29T06:17:02.634Z,21.48
2017-11-29T06:19:30.132Z,15.63
2017-11-29T06:21:56.823Z,14.60
2017-11-29T06:24:23.626Z,18.17
2017-11-29T06:26:50.350Z,17.70
2017-11-29T06:29:17.831Z,15.27
2017-11-29T06:31:44.523Z,12.35
2017-11-29T06:34:11.297Z,14.20
2017-11-29T06:36:38.803Z,16.45
2017-11-29T06:39:06.292Z,13.55
2017-11-29T06:41:33.706Z,17.33
2017-11-29T06:44:00.404Z,13.40
2017-11-29T06:46:27.125Z,18.00
2017-11-29T06:48:54.079Z,14.07
2017-11-29T06:51:20.817Z,19.55
2017-11-29T06:53:47.496Z,18.98
2017-11-29T06:56:14.900Z,19.83
2017-11-29T06:58:41.639Z,17.42
2017-11-29T07:01:08.391Z,19.90
2017-11-29T07:03:35.152Z,18.70
2017-11-29T07:06:01.821Z,20.23
2017-11-29T07:08:29.369Z,17.87
2017-11-29T07:10:56.037Z,23.83
2017-11-29T07:13:23.424Z,23.87
2017-11-29T14:52:14.811Z,22.90
2017-11-29T14:54:41.488Z,28.35
2017-11-29T14:57:08.163Z,25.12
2017-11-29T16:29:32.555Z,51.72
2017-11-29T16:31:59.385Z,50.80
2017-11-29T16:34:26.841Z,41.25
2017-11-29T16:36:54.365Z,43.13
2017-11-29T16:39:21.089Z,47.47
2017-11-29T16:41:47.906Z,51.42
2017-11-29T16:44:14.696Z,47.13
2017-11-29T16:46:41.429Z,37.42
2017-11-29T16:49:08.191Z,42.17
2017-11-29T16:51:34.909Z,41.10
2017-11-29T16:54:01.630Z,41.08
2017-11-29T16:56:28.406Z,43.33
2017-11-29T16:58:55.166Z,46.72
2017-11-29T17:01:21.858Z,52.42
2017-11-29T17:03:53.087Z,59.65
2017-11-29T17:06:20.087Z,48.87
2017-11-29T17:08:46.880Z,41.45
2017-11-29T17:11:14.490Z,41.42
2017-11-29T17:13:41.321Z,47.13
2017-11-29T17:16:08.225Z,41.05
2017-11-29T17:18:35.986Z,44.38
2017-11-29T17:21:02.731Z,38.90
2017-11-29T17:23:29.436Z,34.78
2017-11-29T17:25:56.182Z,42.28
2017-11-29T17:28:22.997Z,39.05
2017-11-29T17:30:50.549Z,40.58
2017-11-29T17:33:17.299Z,40.03
2017-11-29T17:35:44.187Z,26.23
2017-11-29T17:38:10.981Z,24.67
2017-11-29T17:40:37.675Z,23.87
2017-11-29T17:43:04.512Z,24.08
2017-11-29T17:45:31.306Z,22.80
2017-11-29T17:47:58.071Z,22.00
2017-11-29T17:50:25.611Z,22.50
2017-11-29T17:52:52.376Z,25.65
2017-11-29T17:55:19.860Z,27.10
2017-11-29T17:57:46.751Z,30.83
2017-11-29T18:00:13.637Z,26.40
2017-11-29T18:02:40.411Z,24.05
2017-11-29T18:05:07.137Z,28.05
2017-11-29T18:07:34.845Z,24.63
2017-11-29T18:10:01.556Z,27.65
2017-11-29T18:12:28.302Z,27.67
2017-11-29T18:14:55.095Z,31.25
2017-11-29T18:17:21.868Z,34.83
2017-11-29T18:19:48.654Z,27.48
2017-11-29T18:22:15.876Z,33.22
2017-11-29T18:24:43.555Z,28.80
2017-11-29T18:27:12.946Z,34.88
2017-11-29T18:29:40.477Z,35.85
2017-11-29T18:32:07.291Z,29.12
2017-11-29T18:34:34.082Z,30.67
2017-11-29T18:37:00.830Z,31.37
2017-11-29T18:39:27.598Z,32.97
2017-11-29T18:41:55.128Z,33.65
2017-11-29T18:44:21.915Z,34.60
2017-11-29T18:46:48.721Z,32.45
2017-11-29T18:49:15.500Z,28.27
2017-11-29T18:51:42.247Z,30.20
2017-11-29T18:54:09.009Z,34.83
2017-11-29T18:56:35.719Z,25.27
2017-11-29T18:59:03.168Z,28.23
2017-11-29T19:01:29.869Z,26.40
2017-11-29T19:03:56.601Z,28.23
2017-11-29T19:06:23.413Z,27.42
2017-11-29T19:08:51.632Z,26.95
2017-11-29T19:11:18.373Z,30.42
2017-11-29T19:13:45.063Z,29.90
2017-11-29T19:16:11.823Z,33.40
2017-11-29T19:18:39.273Z,34.00
2017-11-29T19:21:06.003Z,33.63
2017-11-29T19:23:32.732Z,31.83
2017-11-29T19:25:59.532Z,29.27
2017-11-29T19:28:26.970Z,26.40
2017-11-29T19:30:53.844Z,30.95
2017-11-29T19:33:21.288Z,37.20
2017-11-29T19:35:49.086Z,29.10
2017-11-29T19:38:15.772Z,24.58
2017-11-29T19:40:45.435Z,27.70
2017-11-29T19:43:14.856Z,24.23
2017-11-29T19:45:41.561Z,25.45
2017-11-29T19:48:09.062Z,24.67
2017-11-29T19:50:35.781Z,24.20
2017-11-29T19:53:02.514Z,23.20
2017-11-29T19:55:30.218Z,23.85
2017-11-29T19:57:57.009Z,25.90
2017-11-29T20:00:23.735Z,25.08
2017-11-29T20:02:50.596Z,27.25
2017-11-29T20:05:18.173Z,24.73
2017-11-29T20:07:44.870Z,26.20
2017-11-29T20:10:11.738Z,26.35
2017-11-29T20:12:38.562Z,27.77
2017-11-29T20:15:05.520Z,27.65
2017-11-29T20:17:32.306Z,24.02
2017-11-29T20:19:59.119Z,20.58
2017-11-29T20:22:25.989Z,28.10
2017-11-29T20:24:52.697Z,26.95
2017-11-29T20:27:19.409Z,24.50
2017-11-29T20:29:46.190Z,27.23
2017-11-29T20:32:13.010Z,30.33
2017-11-29T20:34:39.785Z,28.05
2017-11-29T20:37:06.595Z,30.67
2017-11-29T20:39:33.316Z,28.33
2017-11-29T20:42:00.803Z,27.00
2017-11-29T20:44:27.604Z,28.17
2017-11-29T20:46:54.327Z,27.23
2017-11-29T20:49:21.036Z,27.55
2017-11-29T20:51:47.782Z,25.33
2017-11-29T20:54:14.564Z,23.60
2017-11-29T20:56:41.383Z,23.67
